Time;durP1;ratioP1;P1;durP2;ratioP2;P2;SDS_P1;SDS_P2;PMS_P1;PMS_P2;Temp;Humidity;BMP_temperature;BMP_pressure;BME280_temperature;BME280_humidity;BME280_pressure;Samples;Min_cycle;Max_cycle;Signal;HPM_P1;HPM_P2
2024/02/26 00:01:13;;;;;;;9.10;4.10;;;;;;;4.07;100.00;68838.22;5075412;28;20503;-52
2024/02/26 00:03:44;;;;;;;8.38;4.25;;;;;;;4.04;100.00;68834.75;5073877;28;20147;-53
2024/02/26 00:06:12;;;;;;;7.78;4.30;;;;;;;4.00;100.00;68828.09;5075112;28;20055;-51
2024/02/26 00:08:43;;;;;;;6.00;3.67;;;;;;;4.01;100.00;68826.66;5073268;28;20072;-49
2024/02/26 00:11:13;;;;;;;6.13;3.80;;;;;;;4.00;100.00;68832.69;5071830;28;20168;-51
2024/02/26 00:13:41;;;;;;;6.65;3.80;;;;;;;3.98;100.00;68830.34;5070344;28;20057;-51
2024/02/26 00:16:09;;;;;;;7.63;4.18;;;;;;;3.95;100.00;68826.88;5071268;28;20068;-52
2024/02/26 00:18:37;;;;;;;8.38;4.38;;;;;;;3.96;100.00;68825.44;5073276;28;20055;-49
2024/02/26 00:21:06;;;;;;;7.68;4.05;;;;;;;3.96;100.00;68825.44;5074978;28;20125;-49
2024/02/26 00:23:34;;;;;;;7.38;4.10;;;;;;;3.98;100.00;68830.34;5070731;28;20053;-50
2024/02/26 00:26:03;;;;;;;7.13;3.63;;;;;;;3.94;100.00;68825.69;5069778;28;20044;-51
2024/02/26 00:28:33;;;;;;;7.38;4.40;;;;;;;3.91;100.00;68820.22;5070532;28;20068;-52
2024/02/26 00:31:01;;;;;;;6.68;3.85;;;;;;;3.89;100.00;68818.47;5071229;28;20525;-52
2024/02/26 00:33:31;;;;;;;7.40;4.13;;;;;;;3.87;100.00;68818.75;5071621;28;20044;-51
2024/02/26 00:35:59;;;;;;;7.45;4.15;;;;;;;3.86;100.00;68812.41;5071024;28;20032;-53
2024/02/26 00:38:28;;;;;;;7.97;4.57;;;;;;;3.87;100.00;68816.16;5072874;28;20136;-52
2024/02/26 00:40:56;;;;;;;7.15;4.45;;;;;;;3.87;100.00;68813.00;5073704;28;20083;-50
2024/02/26 00:43:24;;;;;;;8.07;4.65;;;;;;;3.83;100.00;68810.94;5069850;28;20048;-51
2024/02/26 00:45:54;;;;;;;10.13;4.60;;;;;;;3.81;100.00;68806.63;5070743;28;20123;-51
2024/02/26 00:48:22;;;;;;;8.63;4.60;;;;;;;3.84;100.00;68812.09;5073104;28;20083;-50
2024/02/26 00:50:50;;;;;;;7.97;4.78;;;;;;;3.80;100.00;68804.88;5074379;28;20498;-52
2024/02/26 00:53:18;;;;;;;9.85;5.25;;;;;;;3.80;100.00;68807.44;5074158;28;20127;-47
2024/02/26 00:55:46;;;;;;;10.07;6.10;;;;;;;3.79;100.00;68806.28;5073902;28;20040;-48
2024/02/26 00:58:15;;;;;;;7.63;5.22;;;;;;;3.78;100.00;68808.28;5071839;28;20079;-47
2024/02/26 01:00:43;;;;;;;9.52;5.45;;;;;;;3.77;100.00;68804.56;5070189;28;20048;-47
2024/02/26 01:03:13;;;;;;;7.72;4.78;;;;;;;3.84;100.00;68812.09;5071149;28;20052;-48
2024/02/26 01:05:41;;;;;;;8.13;4.63;;;;;;;3.82;100.00;68810.34;5070816;28;20045;-48
2024/02/26 01:08:10;;;;;;;8.93;4.97;;;;;;;3.82;100.00;68812.94;5073671;28;20366;-50
2024/02/26 01:10:38;;;;;;;8.45;5.10;;;;;;;3.86;100.00;68815.00;5072508;28;20076;-48
2024/02/26 01:13:07;;;;;;;8.63;4.72;;;;;;;3.87;100.00;68811.00;5069648;28;20048;-49
2024/02/26 01:15:35;;;;;;;7.95;4.88;;;;;;;3.88;100.00;68814.72;5070374;28;20518;-49
2024/02/26 01:18:04;;;;;;;10.90;4.85;;;;;;;3.95;100.00;68821.69;5069722;28;20150;-48
2024/02/26 01:20:33;;;;;;;8.80;4.90;;;;;;;3.95;100.00;68824.28;5070807;28;20045;-47
2024/02/26 01:23:02;;;;;;;7.43;4.50;;;;;;;4.00;100.00;68830.09;5072195;28;20048;-50
2024/02/26 01:25:30;;;;;;;6.78;4.55;;;;;;;3.99;100.00;68832.09;5070292;28;20044;-50
2024/02/26 01:27:58;;;;;;;7.80;4.47;;;;;;;4.01;100.00;68831.25;5068763;28;20135;-50
2024/02/26 01:30:26;;;;;;;7.30;4.32;;;;;;;4.02;100.00;68832.41;5069894;28;20104;-49
2024/02/26 01:32:54;;;;;;;7.35;4.07;;;;;;;4.07;100.00;68838.78;5069995;28;20048;-48
2024/02/26 01:35:23;;;;;;;7.70;4.70;;;;;;;4.04;100.00;68840.47;5071200;28;20442;-49
2024/02/26 01:37:52;;;;;;;7.85;4.60;;;;;;;4.10;100.00;68844.28;5069755;28;20049;-51
2024/02/26 01:40:21;;;;;;;8.40;4.72;;;;;;;4.07;100.00;68838.78;5069992;28;20055;-48
2024/02/26 01:42:49;;;;;;;6.75;3.90;;;;;;;4.10;100.00;68843.69;5067496;28;20075;-48
2024/02/26 01:45:21;;;;;;;6.07;3.65;;;;;;;4.12;100.00;68841.44;5072247;28;20044;-49
2024/02/26 01:47:52;;;;;;;7.47;4.50;;;;;;;4.10;100.00;68841.69;5069853;28;20041;-49
2024/02/26 01:50:21;;;;;;;9.35;4.63;;;;;;;4.12;100.00;68844.03;5070351;28;20048;-49
2024/02/26 01:52:51;;;;;;;8.35;4.90;;;;;;;4.11;100.00;68842.84;5069204;28;20400;-52
2024/02/26 01:55:21;;;;;;;7.18;4.40;;;;;;;4.17;100.00;68854.41;5072633;28;20068;-51
2024/02/26 01:57:51;;;;;;;7.35;4.25;;;;;;;4.18;100.00;68853.56;5068207;28;20040;-50
2024/02/26 02:00:21;;;;;;;9.32;4.60;;;;;;;4.21;100.00;68857.06;5069896;28;20053;-50
2024/02/26 02:02:52;;;;;;;7.65;4.18;;;;;;;4.16;100.00;68848.66;5073035;28;20529;-53
2024/02/26 02:05:22;;;;;;;8.63;4.32;;;;;;;4.17;100.00;68852.41;5073031;28;20055;-50
2024/02/26 02:07:51;;;;;;;8.52;4.82;;;;;;;4.14;100.00;68848.34;5072903;28;20040;-53
2024/02/26 02:10:22;;;;;;;7.40;4.50;;;;;;;4.10;100.00;68841.69;5071742;28;20148;-52
2024/02/26 02:12:51;;;;;;;9.23;4.70;;;;;;;4.12;100.00;68843.44;5072792;28;20144;-50
2024/02/26 02:15:20;;;;;;;8.38;4.82;;;;;;;4.12;100.00;68844.03;5071458;28;20090;-50
2024/02/26 02:17:49;;;;;;;8.52;4.65;;;;;;;4.11;100.00;68842.84;5069054;28;20056;-53
2024/02/26 02:20:18;;;;;;;8.02;4.65;;;;;;;4.12;100.00;68846.00;5069526;28;20511;-52
2024/02/26 02:22:48;;;;;;;8.52;4.65;;;;;;;4.10;100.00;68844.28;5070623;28;20063;-50
2024/02/26 02:25:16;;;;;;;9.00;4.82;;;;;;;4.11;100.00;68842.28;5068768;28;20048;-49
2024/02/26 02:27:45;;;;;;;8.60;4.80;;;;;;;4.06;100.00;68840.22;5067749;28;20051;-51
2024/02/26 02:30:15;;;;;;;8.20;4.57;;;;;;;4.09;100.00;68837.38;5068683;28;20102;-49
2024/02/26 02:32:44;;;;;;;8.82;4.93;;;;;;;4.03;100.00;68836.72;5071589;28;20085;-48
2024/02/26 02:35:12;;;;;;;8.75;5.32;;;;;;;4.02;100.00;68835.00;5070846;28;20045;-49
2024/02/26 02:37:40;;;;;;;10.63;5.13;;;;;;;4.02;100.00;68829.81;5068348;28;20133;-51
2024/02/26 02:40:10;;;;;;;7.88;4.70;;;;;;;4.06;100.00;68835.06;5069718;28;20487;-50
2024/02/26 02:42:38;;;;;;;8.18;5.55;;;;;;;3.99;100.00;68829.50;5072358;28;20051;-48
2024/02/26 02:45:07;;;;;;;8.07;4.63;;;;;;;3.97;100.00;68826.63;5072184;28;20036;-51
2024/02/26 02:47:37;;;;;;;8.07;5.20;;;;;;;3.96;100.00;68825.44;5068284;28;20060;-51
2024/02/26 02:50:06;;;;;;;8.18;5.05;;;;;;;3.98;100.00;68830.94;5068815;28;20098;-48
2024/02/26 02:52:34;;;;;;;8.68;5.25;;;;;;;3.98;100.00;68822.59;5069295;28;20048;-49
2024/02/26 02:55:02;;;;;;;8.80;5.18;;;;;;;3.96;100.00;68825.44;5070524;28;20063;-50
2024/02/26 02:57:33;;;;;;;7.68;5.00;;;;;;;3.98;100.00;68827.75;5067348;28;20040;-51
2024/02/26 03:00:03;;;;;;;8.40;5.25;;;;;;;3.98;100.00;68825.19;5071174;28;20048;-50
2024/02/26 03:02:32;;;;;;;8.05;4.88;;;;;;;3.97;100.00;68824.03;5068919;28;20044;-49
2024/02/26 03:05:00;;;;;;;7.05;4.40;;;;;;;4.00;100.00;68827.50;5068624;28;20049;-51
2024/02/26 03:07:28;;;;;;;7.65;4.45;;;;;;;4.02;100.00;68830.41;5068047;28;20051;-50
2024/02/26 03:09:57;;;;;;;9.75;5.38;;;;;;;3.97;100.00;68829.19;5070817;28;20052;-51
2024/02/26 03:12:25;;;;;;;7.93;4.78;;;;;;;4.00;100.00;68828.09;5067896;28;20059;-51
2024/02/26 03:14:55;;;;;;;8.32;5.10;;;;;;;3.98;100.00;68830.34;5068167;28;20132;-47
2024/02/26 03:17:24;;;;;;;9.25;5.05;;;;;;;3.99;100.00;68831.50;5071195;28;20574;-49
2024/02/26 03:19:54;;;;;;;8.27;5.10;;;;;;;3.99;100.00;68832.09;5068453;28;20044;-48
2024/02/26 03:22:22;;;;;;;7.40;4.70;;;;;;;3.97;100.00;68824.59;5070646;28;20049;-47
2024/02/26 03:24:50;;;;;;;9.93;4.75;;;;;;;3.96;100.00;68826.03;5071521;28;20068;-52
2024/02/26 03:27:18;;;;;;;7.82;4.97;;;;;;;4.02;100.00;68829.81;5067110;28;20040;-53
2024/02/26 03:29:47;;;;;;;8.68;5.38;;;;;;;4.00;100.00;68830.09;5068674;28;20055;-52
2024/02/26 03:32:17;;;;;;;7.80;5.10;;;;;;;4.01;100.00;68829.25;5070732;28;20036;-49
2024/02/26 03:34:45;;;;;;;7.90;4.65;;;;;;;4.02;100.00;68833.00;5068278;28;20057;-51
2024/02/26 03:37:16;;;;;;;8.90;5.53;;;;;;;4.01;100.00;68831.25;5070662;28;20112;-50
2024/02/26 03:39:44;;;;;;;9.68;5.28;;;;;;;4.02;100.00;68832.41;5071605;28;20094;-50
2024/02/26 03:42:13;;;;;;;8.63;5.03;;;;;;;4.02;100.00;68832.41;5071719;28;20049;-50
2024/02/26 03:44:41;;;;;;;10.40;5.28;;;;;;;4.03;100.00;68833.56;5070533;28;20080;-51
2024/02/26 03:47:09;;;;;;;7.85;5.07;;;;;;;4.03;100.00;68836.72;5070254;28;20040;-50
2024/02/26 03:49:39;;;;;;;8.13;4.80;;;;;;;4.06;100.00;68839.63;5068716;28;20436;-48
2024/02/26 03:52:07;;;;;;;8.35;5.00;;;;;;;4.12;100.00;68844.03;5067993;28;20496;-51
2024/02/26 03:54:35;;;;;;;7.55;4.75;;;;;;;4.12;100.00;68841.44;5068448;28;20059;-46
2024/02/26 03:57:04;;;;;;;8.77;4.78;;;;;;;4.10;100.00;68841.13;5071282;28;20519;-46
2024/02/26 03:59:32;;;;;;;7.13;4.90;;;;;;;4.17;100.00;68846.66;5072558;28;20124;-47
2024/02/26 04:02:01;;;;;;;7.55;4.53;;;;;;;4.14;100.00;68846.34;5075315;28;20047;-47
2024/02/26 04:04:29;;;;;;;9.68;4.45;;;;;;;4.15;100.00;68847.50;5074644;28;20114;-48
2024/02/26 04:06:59;;;;;;;8.18;4.63;;;;;;;4.18;100.00;68847.81;5074447;28;20458;-50
2024/02/26 04:09:27;;;;;;;7.70;4.60;;;;;;;4.18;100.00;68847.81;5074596;28;20056;-48
2024/02/26 04:11:57;;;;;;;7.53;4.20;;;;;;;4.18;100.00;68850.41;5070809;28;20053;-48
2024/02/26 04:14:26;;;;;;;9.68;4.25;;;;;;;4.18;100.00;68850.41;5069595;28;20055;-49
2024/02/26 04:16:54;;;;;;;7.50;4.25;;;;;;;4.19;100.00;68849.00;5071091;28;20060;-49
2024/02/26 04:19:25;;;;;;;6.78;4.38;;;;;;;4.22;100.00;68855.06;5071800;28;20494;-47
2024/02/26 04:21:54;;;;;;;7.05;4.03;;;;;;;4.20;100.00;68853.31;5071310;28;20123;-52
2024/02/26 04:24:23;;;;;;;7.43;4.78;;;;;;;4.21;100.00;68851.31;5073176;28;20045;-49
2024/02/26 04:26:51;;;;;;;8.30;4.95;;;;;;;4.18;100.00;68853.00;5070378;28;20118;-49
2024/02/26 04:29:19;;;;;;;8.10;4.90;;;;;;;4.15;100.00;68846.94;5070686;28;20403;-48
2024/02/26 04:31:48;;;;;;;9.00;5.10;;;;;;;4.08;100.00;68836.81;5071441;28;20495;-48
2024/02/26 04:34:16;;;;;;;8.50;5.10;;;;;;;4.05;100.00;68839.06;5071523;28;20052;-50
2024/02/26 04:36:44;;;;;;;8.10;5.18;;;;;;;4.06;100.00;68829.31;5071073;28;20574;-50
2024/02/26 04:39:12;;;;;;;9.00;4.97;;;;;;;4.04;100.00;68832.72;5069452;28;20076;-50
2024/02/26 04:41:42;;;;;;;9.52;4.72;;;;;;;4.03;100.00;68831.56;5073075;28;20080;-60
2024/02/26 04:44:10;;;;;;;9.43;4.97;;;;;;;4.00;100.00;68830.09;5072520;28;20049;-60
2024/02/26 04:46:39;;;;;;;8.13;4.50;;;;;;;3.98;100.00;68828.34;5074678;28;20044;-60
2024/02/26 04:49:10;;;;;;;7.75;4.75;;;;;;;4.00;100.00;68830.09;5072544;28;20053;-60
2024/02/26 04:51:38;;;;;;;9.80;5.45;;;;;;;4.00;100.00;68830.09;5072653;28;20056;-60
2024/02/26 04:54:06;;;;;;;8.43;5.38;;;;;;;4.00;100.00;68830.09;5072738;28;20048;-61
2024/02/26 04:56:34;;;;;;;8.73;5.25;;;;;;;3.97;100.00;68824.03;5072501;28;20044;-60
2024/02/26 04:59:04;;;;;;;8.80;5.45;;;;;;;3.96;100.00;68825.44;5070508;28;20039;-60
2024/02/26 05:01:32;;;;;;;9.93;5.35;;;;;;;3.92;100.00;68820.81;5072955;28;20046;-60
2024/02/26 05:04:02;;;;;;;8.40;5.10;;;;;;;3.96;100.00;68822.88;5072525;28;20492;-60
2024/02/26 05:06:31;;;;;;;7.72;4.63;;;;;;;3.94;100.00;68823.13;5070958;28;20045;-61
2024/02/26 05:08:59;;;;;;;10.10;5.30;;;;;;;3.94;100.00;68821.13;5070945;28;20045;-60
2024/02/26 05:11:27;;;;;;;9.25;5.30;;;;;;;3.92;100.00;68818.22;5071673;28;20540;-60
2024/02/26 05:13:56;;;;;;;10.00;5.35;;;;;;;3.97;100.00;68824.03;5073933;28;20048;-59
2024/02/26 05:16:27;;;;;;;7.70;4.97;;;;;;;3.93;100.00;68822.53;5071566;28;20052;-59
2024/02/26 05:18:55;;;;;;;8.60;5.05;;;;;;;3.88;100.00;68822.47;5072818;28;20047;-60
2024/02/26 05:21:26;;;;;;;9.15;5.18;;;;;;;3.92;100.00;68823.97;5072711;28;20368;-59
2024/02/26 05:23:54;;;;;;;9.15;5.20;;;;;;;3.96;100.00;68830.63;5072156;28;20045;-60
2024/02/26 05:26:25;;;;;;;8.60;5.18;;;;;;;3.93;100.00;68819.97;5073428;28;20098;-59
2024/02/26 05:28:59;;;;;;;7.57;4.72;;;;;;;3.97;100.00;68824.59;5071932;28;20430;-59
2024/02/26 05:31:31;;;;;;;9.30;5.22;;;;;;;3.91;100.00;68820.22;5073051;28;20068;-60
2024/02/26 05:33:59;;;;;;;9.90;5.47;;;;;;;3.90;100.00;68816.50;5072779;28;20041;-59
2024/02/26 05:36:32;;;;;;;10.15;5.75;;;;;;;3.89;100.00;68815.31;5072345;28;20094;-59
2024/02/26 05:39:01;;;;;;;9.27;4.90;;;;;;;3.89;100.00;68815.91;5071676;28;20407;-60
2024/02/26 05:41:29;;;;;;;8.50;5.22;;;;;;;3.89;100.00;68815.31;5072050;28;20127;-59
2024/02/26 05:43:57;;;;;;;10.77;5.68;;;;;;;3.91;100.00;68817.63;5071950;28;20040;-59
2024/02/26 05:46:26;;;;;;;7.65;4.63;;;;;;;3.89;100.00;68812.75;5073652;28;20438;-59
2024/02/26 05:48:56;;;;;;;8.73;5.40;;;;;;;3.88;100.00;68814.16;5072004;28;20044;-59
2024/02/26 05:51:24;;;;;;;8.32;5.40;;;;;;;3.89;100.00;68815.91;5071862;28;20101;-60
2024/02/26 05:53:54;;;;;;;9.00;5.00;;;;;;;3.88;100.00;68814.16;5071488;28;20051;-60
2024/02/26 05:56:23;;;;;;;8.45;4.88;;;;;;;3.97;100.00;68829.19;5071922;28;20040;-59
2024/02/26 05:58:51;;;;;;;8.98;5.25;;;;;;;3.93;100.00;68822.53;5071268;28;20055;-59
2024/02/26 06:01:21;;;;;;;9.23;5.68;;;;;;;3.93;100.00;68819.38;5073034;28;20143;-60
2024/02/26 06:03:50;;;;;;;9.57;5.28;;;;;;;3.95;100.00;68827.44;5071754;28;20502;-59
2024/02/26 06:06:21;;;;;;;9.38;5.10;;;;;;;3.94;100.00;68823.13;5071810;28;20135;-59
2024/02/26 06:08:50;;;;;;;9.13;5.25;;;;;;;3.96;100.00;68822.88;5070626;28;20123;-59
2024/02/26 06:11:19;;;;;;;8.52;5.32;;;;;;;4.01;100.00;68833.84;5071612;28;20033;-60
2024/02/26 06:13:47;;;;;;;8.70;4.85;;;;;;;3.95;100.00;68821.69;5073185;28;20074;-59
2024/02/26 06:16:15;;;;;;;8.95;5.25;;;;;;;3.97;100.00;68824.03;5072840;28;20040;-59
2024/02/26 06:18:44;;;;;;;7.80;4.93;;;;;;;3.94;100.00;68820.53;5071002;28;20049;-60
2024/02/26 06:21:12;;;;;;;9.05;5.18;;;;;;;3.94;100.00;68825.69;5071997;28;20053;-60
2024/02/26 06:23:42;;;;;;;7.47;4.85;;;;;;;3.93;100.00;68819.97;5071980;28;20048;-60
2024/02/26 06:26:10;;;;;;;8.93;4.93;;;;;;;3.91;100.00;68817.63;5071923;28;20060;-60
2024/02/26 06:28:40;;;;;;;10.10;5.22;;;;;;;3.97;100.00;68824.59;5071411;28;20045;-60
2024/02/26 06:31:09;;;;;;;8.25;5.32;;;;;;;3.96;100.00;68828.03;5072254;28;20056;-60
2024/02/26 06:33:39;;;;;;;8.75;4.75;;;;;;;3.91;100.00;68819.66;5072454;28;20076;-60
2024/02/26 06:36:08;;;;;;;9.13;5.00;;;;;;;3.88;100.00;68819.91;5071738;28;20051;-60
2024/02/26 06:38:36;;;;;;;8.90;5.40;;;;;;;3.88;100.00;68814.72;5071906;28;20072;-60
2024/02/26 06:41:05;;;;;;;8.48;4.90;;;;;;;3.89;100.00;68817.91;5071765;28;20056;-60
2024/02/26 06:43:33;;;;;;;9.60;5.63;;;;;;;3.86;100.00;68815.00;5071494;28;20051;-60
2024/02/26 06:46:02;;;;;;;9.18;5.22;;;;;;;3.89;100.00;68821.06;5072324;28;20079;-60
2024/02/26 06:48:30;;;;;;;8.93;5.57;;;;;;;3.86;100.00;68811.84;5072437;28;20386;-49
2024/02/26 06:50:58;;;;;;;9.63;5.97;;;;;;;3.85;100.00;68810.69;5072270;28;20813;-49
2024/02/26 06:53:26;;;;;;;8.98;6.13;;;;;;;3.86;100.00;68814.44;5070874;28;20048;-51
2024/02/26 06:55:55;;;;;;;10.10;6.35;;;;;;;3.83;100.00;68814.09;5069624;28;20079;-59
2024/02/26 06:58:24;;;;;;;10.15;6.40;;;;;;;3.82;100.00;68809.78;5071474;28;20130;-59
2024/02/26 07:00:52;;;;;;;10.43;6.95;;;;;;;3.84;100.00;68806.94;5071360;28;20059;-58
2024/02/26 07:03:22;;;;;;;8.98;5.95;;;;;;;3.83;100.00;68808.94;5071768;28;20040;-59
2024/02/26 07:05:51;;;;;;;10.35;6.28;;;;;;;3.84;100.00;68810.09;5071623;28;20056;-58
2024/02/26 07:08:19;;;;;;;8.82;5.68;;;;;;;3.82;100.00;68810.34;5071361;28;20132;-59
2024/02/26 07:10:47;;;;;;;9.93;6.35;;;;;;;3.80;100.00;68805.44;5071671;28;20041;-59
2024/02/26 07:13:16;;;;;;;9.68;6.30;;;;;;;3.83;100.00;68811.53;5071475;28;20041;-60
2024/02/26 07:15:45;;;;;;;10.20;6.88;;;;;;;3.81;100.00;68809.19;5071712;28;20554;-60
2024/02/26 07:18:13;;;;;;;11.38;6.60;;;;;;;3.81;100.00;68808.63;5071362;28;20062;-60
2024/02/26 07:20:42;;;;;;;10.93;6.97;;;;;;;3.80;100.00;68810.03;5070950;28;20052;-61
2024/02/26 07:23:10;;;;;;;10.82;6.95;;;;;;;3.79;100.00;68804.31;5070347;28;20147;-60
2024/02/26 07:25:38;;;;;;;10.77;6.47;;;;;;;3.81;100.00;68806.63;5071775;28;20131;-59
2024/02/26 07:28:07;;;;;;;11.35;6.80;;;;;;;3.83;100.00;68808.94;5071194;28;20492;-59
2024/02/26 07:30:35;;;;;;;9.90;6.53;;;;;;;3.82;100.00;68807.78;5070375;28;20044;-59
2024/02/26 07:33:04;;;;;;;11.57;7.18;;;;;;;3.81;100.00;68806.63;5071743;28;20507;-59
2024/02/26 07:35:33;;;;;;;10.75;6.75;;;;;;;3.83;100.00;68808.94;5074471;28;20041;-59
2024/02/26 07:38:01;;;;;;;11.93;7.07;;;;;;;3.85;100.00;68813.25;5075010;28;20052;-60
2024/02/26 07:40:29;;;;;;;10.35;6.90;;;;;;;3.85;100.00;68811.25;5075341;28;20106;-59
2024/02/26 07:42:57;;;;;;;11.38;6.95;;;;;;;3.83;100.00;68813.50;5075049;28;20055;-59
2024/02/26 07:45:25;;;;;;;11.63;7.47;;;;;;;3.82;100.00;68807.78;5074815;28;20059;-59
2024/02/26 07:47:54;;;;;;;14.38;8.05;;;;;;;3.81;100.00;68808.63;5076117;28;20049;-59
2024/02/26 07:50:24;;;;;;;12.73;8.27;;;;;;;3.85;100.00;68815.84;5075399;28;20045;-59
2024/02/26 07:52:52;;;;;;;12.20;8.13;;;;;;;3.82;100.00;68807.78;5075160;28;20123;-59
2024/02/26 07:55:22;;;;;;;12.63;8.90;;;;;;;3.84;100.00;68812.66;5075673;28;20063;-59
2024/02/26 07:57:49;;;;;;;13.55;8.50;;;;;;;3.86;100.00;68815.00;5075872;28;20086;-59
2024/02/26 08:00:18;;;;;;;13.50;8.88;;;;;;;3.86;100.00;68817.59;5075295;28;20549;-60
2024/02/26 08:02:47;;;;;;;16.30;9.38;;;;;;;3.85;100.00;68813.84;5075308;28;20051;-59
2024/02/26 08:05:18;;;;;;;15.40;9.80;;;;;;;3.86;100.00;68814.44;5073898;28;20067;-59
2024/02/26 08:07:48;;;;;;;15.32;9.60;;;;;;;3.85;100.00;68813.84;5075049;28;20050;-60
2024/02/26 08:10:17;;;;;;;14.48;10.27;;;;;;;3.84;100.00;68807.50;5075383;28;20036;-60
2024/02/26 08:12:46;;;;;;;17.02;10.88;;;;;;;3.85;100.00;68811.25;5074599;28;20526;-59
2024/02/26 08:15:14;;;;;;;15.00;10.02;;;;;;;3.91;100.00;68822.22;5074927;28;20119;-60
2024/02/26 08:17:42;;;;;;;16.33;11.10;;;;;;;3.88;100.00;68814.72;5073570;28;20080;-60
2024/02/26 08:20:11;;;;;;;17.67;10.57;;;;;;;3.91;100.00;68817.63;5074924;28;20043;-61
2024/02/26 08:22:40;;;;;;;16.88;11.00;;;;;;;3.89;100.00;68818.47;5074765;28;20055;-61
2024/02/26 08:25:11;;;;;;;17.48;10.90;;;;;;;3.86;100.00;68817.00;5073292;28;20041;-61
2024/02/26 08:27:39;;;;;;;18.27;11.23;;;;;;;3.87;100.00;68813.59;5074435;28;20120;-61
2024/02/26 08:30:08;;;;;;;16.23;10.20;;;;;;;3.88;100.00;68817.31;5075172;28;20032;-61
2024/02/26 08:32:36;;;;;;;16.75;11.38;;;;;;;3.83;100.00;68808.94;5074648;28;20044;-60
2024/02/26 08:35:05;;;;;;;16.67;10.68;;;;;;;3.89;100.00;68815.31;5074185;28;20495;-61
2024/02/26 08:37:33;;;;;;;17.55;11.68;;;;;;;3.85;100.00;68810.69;5074143;28;20118;-61
2024/02/26 08:40:03;;;;;;;16.95;10.30;;;;;;;3.90;100.00;68816.50;5074627;28;20036;-60
2024/02/26 08:42:35;;;;;;;;;;;;;;;3.92;100.00;68818.81;5074903;28;20049;-60
2024/02/26 08:45:08;;;;;;;18.00;10.80;;;;;;;3.94;100.00;68820.53;5074150;28;19927;-61
2024/02/26 08:47:36;;;;;;;15.88;10.02;;;;;;;3.87;100.00;68813.00;5073189;28;20461;-61
2024/02/26 08:50:06;;;;;;;17.42;9.73;;;;;;;3.87;100.00;68813.00;5072739;28;20139;-61
2024/02/26 08:52:34;;;;;;;16.30;10.13;;;;;;;3.87;100.00;68811.00;5074608;28;20452;-61
2024/02/26 08:55:06;;;;;;;16.80;10.10;;;;;;;3.90;100.00;68821.66;5074560;28;20138;-60
2024/02/26 08:57:35;;;;;;;16.65;10.18;;;;;;;3.89;100.00;68815.91;5074840;28;20724;-60
2024/02/26 09:00:05;;;;;;;18.05;10.38;;;;;;;3.88;100.00;68817.31;5074828;28;20052;-60
2024/02/26 09:02:33;;;;;;;19.58;10.43;;;;;;;3.91;100.00;68820.22;5074771;28;20434;-61
2024/02/26 09:05:01;;;;;;;19.58;10.60;;;;;;;3.91;100.00;68820.22;5073820;28;20396;-60
2024/02/26 09:07:29;;;;;;;17.27;10.82;;;;;;;3.91;100.00;68815.06;5074093;28;20068;-60
2024/02/26 09:09:58;;;;;;;17.48;10.52;;;;;;;3.93;100.00;68821.94;5073734;28;20050;-60
2024/02/26 09:12:26;;;;;;;17.80;10.20;;;;;;;4.01;100.00;68829.25;5074416;28;20051;-61
2024/02/26 09:14:57;;;;;;;18.65;10.82;;;;;;;3.98;100.00;68825.78;5074558;28;20048;-61
2024/02/26 09:17:25;;;;;;;18.80;10.27;;;;;;;3.99;100.00;68826.91;5074477;28;20083;-60
2024/02/26 09:19:54;;;;;;;19.27;11.68;;;;;;;3.99;100.00;68823.75;5074463;28;20056;-62
2024/02/26 09:22:22;;;;;;;19.58;11.63;;;;;;;3.99;100.00;68832.09;5073015;28;20045;-61
2024/02/26 09:24:52;;;;;;;20.67;10.90;;;;;;;3.99;100.00;68828.94;5073183;28;20048;-61
2024/02/26 09:27:20;;;;;;;19.83;11.27;;;;;;;3.99;100.00;68831.50;5072772;28;20056;-61
2024/02/26 09:29:48;;;;;;;19.35;11.18;;;;;;;4.00;100.00;68830.09;5072232;28;20044;-60
2024/02/26 09:32:18;;;;;;;21.40;11.77;;;;;;;4.00;100.00;68830.09;5071079;28;20064;-60
2024/02/26 09:34:46;;;;;;;21.52;11.90;;;;;;;4.00;100.00;68833.25;5072288;28;20076;-52
2024/02/26 09:37:14;;;;;;;19.30;11.57;;;;;;;3.98;100.00;68828.34;5069683;28;20542;-49
2024/02/26 09:39:49;;;;;;;22.65;11.98;;;;;;;4.01;100.00;68829.25;5072410;28;20055;-60
2024/02/26 09:42:20;;;;;;;22.25;11.88;;;;;;;4.07;100.00;68840.78;5073930;28;20052;-61
2024/02/26 09:44:54;;;;;;;23.33;12.50;;;;;;;4.04;100.00;68835.31;5072521;28;20141;-61
2024/02/26 09:47:27;;;;;;;22.85;12.38;;;;;;;4.08;100.00;68839.38;5073005;28;20052;-61
2024/02/26 09:49:57;;;;;;;;;;;;;;;4.08;100.00;68839.38;5073112;28;20407;-61
2024/02/26 09:52:27;;;;;;;19.88;12.18;;;;;;;4.10;100.00;68841.69;5072232;28;20303;-61
2024/02/26 09:54:55;;;;;;;19.67;11.10;;;;;;;4.11;100.00;68844.88;5074026;28;20123;-61
2024/02/26 09:57:24;;;;;;;20.98;11.95;;;;;;;4.15;100.00;68847.50;5073531;28;20040;-61
2024/02/26 09:59:55;;;;;;;24.25;12.85;;;;;;;4.13;100.00;68845.19;5073712;28;20056;-61
2024/02/26 10:02:25;;;;;;;23.27;12.35;;;;;;;4.11;100.00;68840.28;5073612;28;20053;-61
2024/02/26 10:04:55;;;;;;;22.27;12.95;;;;;;;4.16;100.00;68848.06;5073622;28;20571;-61
2024/02/26 10:07:24;;;;;;;22.60;11.80;;;;;;;4.13;100.00;68844.59;5072220;28;20047;-61
2024/02/26 10:09:53;;;;;;;20.55;11.73;;;;;;;4.17;100.00;68849.84;5070476;28;20036;-52
2024/02/26 10:12:22;;;;;;;19.98;11.60;;;;;;;4.16;100.00;68848.66;5069453;28;20071;-60
2024/02/26 10:14:51;;;;;;;18.38;10.95;;;;;;;4.17;100.00;68846.66;5072198;28;20036;-60
2024/02/26 10:17:21;;;;;;;20.92;11.77;;;;;;;4.20;100.00;68855.31;5072095;28;20063;-61
2024/02/26 10:19:51;;;;;;;23.05;11.20;;;;;;;4.19;100.00;68854.16;5072797;28;20052;-61
2024/02/26 10:22:22;;;;;;;20.88;11.68;;;;;;;4.20;100.00;68850.16;5072941;28;20411;-61
2024/02/26 10:24:50;;;;;;;20.23;11.00;;;;;;;4.15;100.00;68844.91;5073137;28;20076;-61
2024/02/26 10:27:21;;;;;;;20.50;11.70;;;;;;;4.16;100.00;68848.66;5071816;28;20048;-60
2024/02/26 10:29:53;;;;;;;18.35;10.32;;;;;;;4.19;100.00;68851.56;5071345;28;20036;-61
2024/02/26 10:32:21;;;;;;;19.20;10.98;;;;;;;4.20;100.00;68850.72;5071236;28;20055;-53
2024/02/26 10:34:56;;;;;;;17.83;10.25;;;;;;;4.18;100.00;68853.56;5072374;28;20040;-51
2024/02/26 10:37:25;;;;;;;20.48;11.38;;;;;;;4.20;100.00;68848.16;5072650;28;20045;-52
2024/02/26 10:39:57;;;;;;;19.80;11.20;;;;;;;4.22;100.00;68858.22;5070673;28;20059;-48
2024/02/26 10:42:27;;;;;;;17.13;9.57;;;;;;;4.25;100.00;68857.97;5066456;28;20066;-51
2024/02/26 10:44:56;;;;;;;17.83;10.02;;;;;;;4.25;100.00;68857.97;5071413;28;20048;-52
2024/02/26 10:47:25;;;;;;;16.95;9.95;;;;;;;4.31;100.00;68862.91;5069928;28;20055;-60
2024/02/26 10:49:55;;;;;;;16.70;10.48;;;;;;;4.32;100.00;68863.50;5069606;28;20090;-49
2024/02/26 10:52:25;;;;;;;18.58;10.98;;;;;;;4.33;100.00;68869.81;5070739;28;20048;-51
2024/02/26 10:54:57;;;;;;;20.08;10.68;;;;;;;4.31;100.00;68862.31;5069594;28;20116;-61
2024/02/26 10:57:32;;;;;;;20.30;11.73;;;;;;;4.32;100.00;68864.09;5072317;28;20496;-61
2024/02/26 11:00:04;;;;;;;16.98;10.43;;;;;;;4.33;100.00;68867.25;5072611;28;20052;-49
2024/02/26 11:02:34;;;;;;;18.17;11.48;;;;;;;4.31;100.00;68864.91;5072222;28;20045;-50
2024/02/26 11:05:04;;;;;;;18.95;11.40;;;;;;;4.30;100.00;68861.75;5071946;28;20048;-52
2024/02/26 11:07:33;;;;;;;19.20;11.73;;;;;;;4.30;100.00;68861.75;5072226;28;20381;-50
2024/02/26 11:10:03;;;;;;;18.85;11.52;;;;;;;4.31;100.00;68865.50;5069453;28;20048;-49
2024/02/26 11:12:35;;;;;;;18.45;10.77;;;;;;;4.31;100.00;68865.50;5067216;28;20041;-50
2024/02/26 11:15:04;;;;;;;20.63;11.95;;;;;;;4.30;100.00;68859.19;5069152;28;20075;-49
2024/02/26 11:17:34;;;;;;;19.52;11.57;;;;;;;4.27;100.00;68858.28;5071644;28;20061;-49
2024/02/26 11:20:05;;;;;;;19.83;11.63;;;;;;;4.32;100.00;68860.91;5072095;28;20037;-49
2024/02/26 11:22:33;;;;;;;21.27;11.77;;;;;;;4.27;100.00;68860.88;5071711;28;20460;-49
2024/02/26 11:25:02;;;;;;;18.65;11.38;;;;;;;4.27;100.00;68855.69;5071667;28;20524;-49
2024/02/26 11:27:33;;;;;;;19.75;11.95;;;;;;;4.28;100.00;68864.00;5072287;28;20052;-48
2024/02/26 11:30:05;;;;;;;18.48;11.88;;;;;;;4.27;100.00;68863.44;5069804;28;20053;-51
2024/02/26 11:32:35;;;;;;;18.27;11.23;;;;;;;4.27;100.00;68857.69;5068896;28;20044;-50
2024/02/26 11:35:07;;;;;;;18.20;11.15;;;;;;;4.31;100.00;68862.31;5071013;28;20040;-52
2024/02/26 11:37:35;;;;;;;20.75;11.32;;;;;;;4.33;100.00;68867.25;5071984;28;20516;-51